sensor_id;sensor_type;location;lat;lon;timestamp;P1;durP1;ratioP1;P2;durP2;ratioP2
1428;SDS011;708;51.442;7.016;2022-07-29T00:01:16;4.82;;;2.40;;
1428;SDS011;708;51.442;7.016;2022-07-29T00:03:43;7.55;;;2.65;;
1428;SDS011;708;51.442;7.016;2022-07-29T00:06:09;8.70;;;2.00;;
1428;SDS011;708;51.442;7.016;2022-07-29T00:08:38;4.72;;;2.33;;
1428;SDS011;708;51.442;7.016;2022-07-29T00:11:04;8.15;;;2.08;;
1428;SDS011;708;51.442;7.016;2022-07-29T00:13:31;8.75;;;1.80;;
1428;SDS011;708;51.442;7.016;2022-07-29T00:15:58;4.25;;;1.92;;
1428;SDS011;708;51.442;7.016;2022-07-29T00:18:25;6.93;;;2.17;;
1428;SDS011;708;51.442;7.016;2022-07-29T00:20:52;7.38;;;3.50;;
1428;SDS011;708;51.442;7.016;2022-07-29T00:23:18;5.50;;;2.22;;
1428;SDS011;708;51.442;7.016;2022-07-29T00:25:47;3.08;;;1.80;;
1428;SDS011;708;51.442;7.016;2022-07-29T00:28:13;4.75;;;2.08;;
1428;SDS011;708;51.442;7.016;2022-07-29T00:30:40;6.15;;;2.75;;
1428;SDS011;708;51.442;7.016;2022-07-29T00:33:08;3.78;;;2.08;;
1428;SDS011;708;51.442;7.016;2022-07-29T00:35:35;4.00;;;2.22;;
1428;SDS011;708;51.442;7.016;2022-07-29T00:38:10;5.22;;;1.90;;
1428;SDS011;708;51.442;7.016;2022-07-29T00:40:37;2.47;;;1.80;;
1428;SDS011;708;51.442;7.016;2022-07-29T00:43:06;6.53;;;2.50;;
1428;SDS011;708;51.442;7.016;2022-07-29T00:45:33;6.93;;;2.00;;
1428;SDS011;708;51.442;7.016;2022-07-29T00:48:00;5.90;;;1.77;;
1428;SDS011;708;51.442;7.016;2022-07-29T00:50:27;6.95;;;1.85;;
1428;SDS011;708;51.442;7.016;2022-07-29T00:52:54;7.00;;;2.20;;
1428;SDS011;708;51.442;7.016;2022-07-29T00:55:21;4.32;;;2.72;;
1428;SDS011;708;51.442;7.016;2022-07-29T00:57:48;3.22;;;2.15;;
1428;SDS011;708;51.442;7.016;2022-07-29T01:00:17;4.50;;;2.10;;
1428;SDS011;708;51.442;7.016;2022-07-29T01:02:46;4.00;;;2.33;;
1428;SDS011;708;51.442;7.016;2022-07-29T01:05:14;6.75;;;2.22;;
1428;SDS011;708;51.442;7.016;2022-07-29T01:07:42;4.72;;;2.30;;
1428;SDS011;708;51.442;7.016;2022-07-29T01:10:11;5.43;;;2.05;;
1428;SDS011;708;51.442;7.016;2022-07-29T01:12:40;5.68;;;2.45;;
1428;SDS011;708;51.442;7.016;2022-07-29T01:15:10;8.60;;;2.33;;
1428;SDS011;708;51.442;7.016;2022-07-29T01:17:41;4.35;;;2.13;;
1428;SDS011;708;51.442;7.016;2022-07-29T01:20:12;4.75;;;1.90;;
1428;SDS011;708;51.442;7.016;2022-07-29T01:22:50;3.85;;;1.98;;
1428;SDS011;708;51.442;7.016;2022-07-29T01:25:46;5.95;;;2.13;;
1428;SDS011;708;51.442;7.016;2022-07-29T01:28:40;3.13;;;2.08;;
1428;SDS011;708;51.442;7.016;2022-07-29T01:31:16;7.07;;;2.80;;
1428;SDS011;708;51.442;7.016;2022-07-29T01:33:48;3.45;;;1.95;;
1428;SDS011;708;51.442;7.016;2022-07-29T01:36:22;3.85;;;2.30;;
1428;SDS011;708;51.442;7.016;2022-07-29T01:38:54;2.28;;;1.67;;
1428;SDS011;708;51.442;7.016;2022-07-29T01:41:26;6.25;;;2.60;;
1428;SDS011;708;51.442;7.016;2022-07-29T01:44:02;3.80;;;2.42;;
1428;SDS011;708;51.442;7.016;2022-07-29T01:46:36;3.63;;;2.22;;
1428;SDS011;708;51.442;7.016;2022-07-29T01:49:08;4.78;;;2.17;;
1428;SDS011;708;51.442;7.016;2022-07-29T01:51:40;5.80;;;2.20;;
1428;SDS011;708;51.442;7.016;2022-07-29T01:54:12;4.20;;;2.00;;
1428;SDS011;708;51.442;7.016;2022-07-29T01:56:45;4.63;;;2.00;;
1428;SDS011;708;51.442;7.016;2022-07-29T01:59:17;3.08;;;1.80;;
1428;SDS011;708;51.442;7.016;2022-07-29T02:01:45;7.95;;;2.38;;
1428;SDS011;708;51.442;7.016;2022-07-29T02:04:14;8.13;;;2.38;;
1428;SDS011;708;51.442;7.016;2022-07-29T02:06:44;6.25;;;2.40;;
1428;SDS011;708;51.442;7.016;2022-07-29T02:09:13;3.70;;;1.75;;
1428;SDS011;708;51.442;7.016;2022-07-29T02:11:42;7.85;;;3.22;;
1428;SDS011;708;51.442;7.016;2022-07-29T02:14:16;6.88;;;2.55;;
1428;SDS011;708;51.442;7.016;2022-07-29T02:16:44;4.50;;;1.85;;
1428;SDS011;708;51.442;7.016;2022-07-29T02:19:13;3.95;;;2.15;;
1428;SDS011;708;51.442;7.016;2022-07-29T02:21:42;7.53;;;2.80;;
1428;SDS011;708;51.442;7.016;2022-07-29T02:24:11;5.70;;;2.60;;
1428;SDS011;708;51.442;7.016;2022-07-29T02:26:38;6.38;;;2.35;;
1428;SDS011;708;51.442;7.016;2022-07-29T02:29:07;8.65;;;2.25;;
1428;SDS011;708;51.442;7.016;2022-07-29T02:31:37;5.47;;;2.92;;
1428;SDS011;708;51.442;7.016;2022-07-29T02:34:06;6.97;;;2.30;;
1428;SDS011;708;51.442;7.016;2022-07-29T02:36:35;6.72;;;2.53;;
1428;SDS011;708;51.442;7.016;2022-07-29T02:39:03;3.47;;;2.30;;
1428;SDS011;708;51.442;7.016;2022-07-29T02:41:33;4.20;;;2.13;;
1428;SDS011;708;51.442;7.016;2022-07-29T02:44:08;3.55;;;1.90;;
1428;SDS011;708;51.442;7.016;2022-07-29T02:46:41;3.20;;;2.20;;
1428;SDS011;708;51.442;7.016;2022-07-29T02:49:13;5.38;;;2.55;;
1428;SDS011;708;51.442;7.016;2022-07-29T02:51:44;4.78;;;2.20;;
1428;SDS011;708;51.442;7.016;2022-07-29T02:54:17;6.15;;;2.15;;
1428;SDS011;708;51.442;7.016;2022-07-29T02:56:57;7.20;;;4.50;;
1428;SDS011;708;51.442;7.016;2022-07-29T02:59:27;5.53;;;2.60;;
1428;SDS011;708;51.442;7.016;2022-07-29T03:01:57;4.72;;;2.30;;
1428;SDS011;708;51.442;7.016;2022-07-29T03:04:25;5.20;;;2.92;;
1428;SDS011;708;51.442;7.016;2022-07-29T03:06:54;4.47;;;2.22;;
1428;SDS011;708;51.442;7.016;2022-07-29T03:09:24;4.32;;;1.90;;
1428;SDS011;708;51.442;7.016;2022-07-29T03:11:52;2.75;;;1.60;;
1428;SDS011;708;51.442;7.016;2022-07-29T03:14:19;3.92;;;1.63;;
1428;SDS011;708;51.442;7.016;2022-07-29T03:16:48;3.03;;;2.17;;
1428;SDS011;708;51.442;7.016;2022-07-29T03:19:17;4.82;;;2.53;;
1428;SDS011;708;51.442;7.016;2022-07-29T03:21:45;4.85;;;2.40;;
1428;SDS011;708;51.442;7.016;2022-07-29T03:24:23;3.33;;;2.05;;
1428;SDS011;708;51.442;7.016;2022-07-29T03:26:55;4.20;;;2.17;;
1428;SDS011;708;51.442;7.016;2022-07-29T03:29:22;3.22;;;2.25;;
1428;SDS011;708;51.442;7.016;2022-07-29T03:31:49;5.88;;;2.70;;
1428;SDS011;708;51.442;7.016;2022-07-29T03:34:17;6.55;;;2.00;;
1428;SDS011;708;51.442;7.016;2022-07-29T03:36:44;4.90;;;2.05;;
1428;SDS011;708;51.442;7.016;2022-07-29T03:39:11;2.53;;;1.80;;
1428;SDS011;708;51.442;7.016;2022-07-29T03:41:41;4.13;;;2.00;;
1428;SDS011;708;51.442;7.016;2022-07-29T03:44:10;2.75;;;2.13;;
1428;SDS011;708;51.442;7.016;2022-07-29T03:46:38;4.65;;;2.15;;
1428;SDS011;708;51.442;7.016;2022-07-29T03:49:05;5.30;;;2.20;;
1428;SDS011;708;51.442;7.016;2022-07-29T03:51:35;3.13;;;1.67;;
1428;SDS011;708;51.442;7.016;2022-07-29T03:54:02;3.75;;;1.48;;
1428;SDS011;708;51.442;7.016;2022-07-29T03:56:30;4.03;;;2.15;;
1428;SDS011;708;51.442;7.016;2022-07-29T03:59:00;4.13;;;2.20;;
1428;SDS011;708;51.442;7.016;2022-07-29T04:01:28;3.88;;;1.90;;
1428;SDS011;708;51.442;7.016;2022-07-29T04:03:55;3.55;;;2.33;;
1428;SDS011;708;51.442;7.016;2022-07-29T04:06:23;4.30;;;1.90;;
1428;SDS011;708;51.442;7.016;2022-07-29T04:08:52;4.68;;;2.15;;
1428;SDS011;708;51.442;7.016;2022-07-29T04:11:19;3.58;;;2.45;;
1428;SDS011;708;51.442;7.016;2022-07-29T04:13:46;4.07;;;1.98;;
1428;SDS011;708;51.442;7.016;2022-07-29T04:16:12;3.40;;;1.85;;
1428;SDS011;708;51.442;7.016;2022-07-29T04:18:39;3.70;;;1.88;;
1428;SDS011;708;51.442;7.016;2022-07-29T04:21:06;4.90;;;1.63;;
1428;SDS011;708;51.442;7.016;2022-07-29T04:23:32;4.20;;;1.73;;
1428;SDS011;708;51.442;7.016;2022-07-29T04:26:01;5.25;;;2.03;;
1428;SDS011;708;51.442;7.016;2022-07-29T04:28:27;4.13;;;2.40;;
1428;SDS011;708;51.442;7.016;2022-07-29T04:30:54;2.85;;;2.10;;
1428;SDS011;708;51.442;7.016;2022-07-29T04:33:21;4.18;;;1.98;;
1428;SDS011;708;51.442;7.016;2022-07-29T04:35:48;3.40;;;1.70;;
1428;SDS011;708;51.442;7.016;2022-07-29T04:38:14;3.72;;;1.95;;
1428;SDS011;708;51.442;7.016;2022-07-29T04:40:41;4.10;;;2.42;;
1428;SDS011;708;51.442;7.016;2022-07-29T04:43:09;5.18;;;2.00;;
1428;SDS011;708;51.442;7.016;2022-07-29T04:45:36;8.43;;;5.65;;
1428;SDS011;708;51.442;7.016;2022-07-29T04:48:03;4.78;;;2.30;;
1428;SDS011;708;51.442;7.016;2022-07-29T04:50:30;4.35;;;1.73;;
1428;SDS011;708;51.442;7.016;2022-07-29T04:52:57;8.73;;;2.28;;
1428;SDS011;708;51.442;7.016;2022-07-29T04:55:24;4.30;;;1.80;;
1428;SDS011;708;51.442;7.016;2022-07-29T04:57:51;5.38;;;1.90;;
1428;SDS011;708;51.442;7.016;2022-07-29T05:00:19;3.05;;;1.92;;
1428;SDS011;708;51.442;7.016;2022-07-29T05:02:46;8.85;;;2.70;;
1428;SDS011;708;51.442;7.016;2022-07-29T05:05:12;1.83;;;1.60;;
1428;SDS011;708;51.442;7.016;2022-07-29T05:07:39;4.05;;;2.00;;
1428;SDS011;708;51.442;7.016;2022-07-29T05:10:07;4.28;;;2.35;;
1428;SDS011;708;51.442;7.016;2022-07-29T05:12:34;9.70;;;2.78;;
1428;SDS011;708;51.442;7.016;2022-07-29T05:15:01;2.80;;;2.22;;
1428;SDS011;708;51.442;7.016;2022-07-29T05:17:30;6.13;;;2.72;;
1428;SDS011;708;51.442;7.016;2022-07-29T05:19:56;5.03;;;2.63;;
1428;SDS011;708;51.442;7.016;2022-07-29T05:22:23;4.35;;;2.20;;
1428;SDS011;708;51.442;7.016;2022-07-29T05:24:50;6.70;;;2.42;;
1428;SDS011;708;51.442;7.016;2022-07-29T05:27:17;4.75;;;2.45;;
1428;SDS011;708;51.442;7.016;2022-07-29T05:29:44;5.57;;;2.38;;
1428;SDS011;708;51.442;7.016;2022-07-29T05:32:10;2.53;;;2.03;;
1428;SDS011;708;51.442;7.016;2022-07-29T05:34:39;10.45;;;2.55;;
1428;SDS011;708;51.442;7.016;2022-07-29T05:37:06;7.88;;;2.55;;
1428;SDS011;708;51.442;7.016;2022-07-29T05:39:32;4.72;;;2.20;;
1428;SDS011;708;51.442;7.016;2022-07-29T05:41:59;3.78;;;2.35;;
1428;SDS011;708;51.442;7.016;2022-07-29T05:44:27;3.53;;;2.47;;
1428;SDS011;708;51.442;7.016;2022-07-29T05:47:01;4.47;;;2.53;;
1428;SDS011;708;51.442;7.016;2022-07-29T05:49:28;4.22;;;2.40;;
1428;SDS011;708;51.442;7.016;2022-07-29T05:51:57;4.93;;;2.35;;
1428;SDS011;708;51.442;7.016;2022-07-29T05:54:24;2.47;;;1.98;;
1428;SDS011;708;51.442;7.016;2022-07-29T05:56:51;4.00;;;2.20;;
1428;SDS011;708;51.442;7.016;2022-07-29T05:59:18;3.88;;;2.20;;
1428;SDS011;708;51.442;7.016;2022-07-29T06:01:44;3.38;;;2.45;;
1428;SDS011;708;51.442;7.016;2022-07-29T06:04:11;6.28;;;3.45;;
1428;SDS011;708;51.442;7.016;2022-07-29T06:06:38;3.25;;;2.47;;
1428;SDS011;708;51.442;7.016;2022-07-29T06:09:06;3.92;;;2.72;;
1428;SDS011;708;51.442;7.016;2022-07-29T06:11:33;4.50;;;3.45;;
1428;SDS011;708;51.442;7.016;2022-07-29T06:14:00;7.43;;;2.70;;
1428;SDS011;708;51.442;7.016;2022-07-29T06:16:28;8.25;;;2.90;;
1428;SDS011;708;51.442;7.016;2022-07-29T06:18:54;8.02;;;3.10;;
1428;SDS011;708;51.442;7.016;2022-07-29T06:21:24;5.65;;;3.13;;
1428;SDS011;708;51.442;7.016;2022-07-29T06:23:51;8.85;;;3.85;;
1428;SDS011;708;51.442;7.016;2022-07-29T06:26:19;8.90;;;4.53;;
1428;SDS011;708;51.442;7.016;2022-07-29T06:28:46;7.35;;;3.28;;
1428;SDS011;708;51.442;7.016;2022-07-29T06:31:13;7.65;;;3.00;;
1428;SDS011;708;51.442;7.016;2022-07-29T06:33:39;8.93;;;3.40;;
1428;SDS011;708;51.442;7.016;2022-07-29T06:36:06;5.50;;;2.78;;
1428;SDS011;708;51.442;7.016;2022-07-29T06:38:34;12.13;;;3.33;;
1428;SDS011;708;51.442;7.016;2022-07-29T06:41:03;9.38;;;3.53;;
1428;SDS011;708;51.442;7.016;2022-07-29T06:43:33;4.03;;;2.90;;
1428;SDS011;708;51.442;7.016;2022-07-29T06:46:03;9.13;;;4.60;;
1428;SDS011;708;51.442;7.016;2022-07-29T06:48:31;4.45;;;2.80;;
1428;SDS011;708;51.442;7.016;2022-07-29T06:50:58;6.60;;;3.80;;
1428;SDS011;708;51.442;7.016;2022-07-29T06:53:26;4.47;;;3.15;;
1428;SDS011;708;51.442;7.016;2022-07-29T06:55:54;7.38;;;4.15;;
1428;SDS011;708;51.442;7.016;2022-07-29T06:58:24;7.35;;;4.78;;
1428;SDS011;708;51.442;7.016;2022-07-29T07:00:52;5.82;;;3.83;;
1428;SDS011;708;51.442;7.016;2022-07-29T07:03:19;8.82;;;3.80;;
1428;SDS011;708;51.442;7.016;2022-07-29T07:05:46;10.32;;;4.07;;
1428;SDS011;708;51.442;7.016;2022-07-29T07:08:13;4.97;;;3.70;;
1428;SDS011;708;51.442;7.016;2022-07-29T07:10:41;5.32;;;3.53;;
1428;SDS011;708;51.442;7.016;2022-07-29T07:13:08;6.15;;;3.70;;
1428;SDS011;708;51.442;7.016;2022-07-29T07:15:35;5.78;;;3.13;;
1428;SDS011;708;51.442;7.016;2022-07-29T07:18:04;3.70;;;3.17;;
1428;SDS011;708;51.442;7.016;2022-07-29T07:20:31;3.33;;;3.03;;
1428;SDS011;708;51.442;7.016;2022-07-29T07:22:58;5.95;;;3.30;;
1428;SDS011;708;51.442;7.016;2022-07-29T07:25:25;12.65;;;3.60;;
1428;SDS011;708;51.442;7.016;2022-07-29T07:27:52;8.57;;;3.40;;
1428;SDS011;708;51.442;7.016;2022-07-29T07:30:22;3.10;;;2.53;;
1428;SDS011;708;51.442;7.016;2022-07-29T07:32:49;7.70;;;3.28;;
1428;SDS011;708;51.442;7.016;2022-07-29T07:35:17;4.05;;;3.17;;
1428;SDS011;708;51.442;7.016;2022-07-29T07:37:44;5.13;;;2.50;;
1428;SDS011;708;51.442;7.016;2022-07-29T07:40:13;6.97;;;3.15;;
1428;SDS011;708;51.442;7.016;2022-07-29T07:42:40;5.70;;;2.70;;
1428;SDS011;708;51.442;7.016;2022-07-29T07:45:07;7.45;;;2.90;;
1428;SDS011;708;51.442;7.016;2022-07-29T07:47:35;8.97;;;3.27;;
1428;SDS011;708;51.442;7.016;2022-07-29T07:50:02;6.13;;;3.03;;
1428;SDS011;708;51.442;7.016;2022-07-29T07:52:31;12.17;;;3.27;;
1428;SDS011;708;51.442;7.016;2022-07-29T07:54:58;6.13;;;2.90;;
1428;SDS011;708;51.442;7.016;2022-07-29T07:57:25;6.27;;;3.20;;
1428;SDS011;708;51.442;7.016;2022-07-29T07:59:54;5.60;;;2.67;;
1428;SDS011;708;51.442;7.016;2022-07-29T08:02:24;10.47;;;3.20;;
1428;SDS011;708;51.442;7.016;2022-07-29T08:04:51;5.23;;;2.30;;
1428;SDS011;708;51.442;7.016;2022-07-29T08:07:18;6.03;;;3.30;;
1428;SDS011;708;51.442;7.016;2022-07-29T08:09:46;10.60;;;3.90;;
1428;SDS011;708;51.442;7.016;2022-07-29T08:12:13;7.50;;;3.57;;
1428;SDS011;708;51.442;7.016;2022-07-29T08:14:40;8.40;;;3.00;;
1428;SDS011;708;51.442;7.016;2022-07-29T08:17:06;3.70;;;2.67;;
1428;SDS011;708;51.442;7.016;2022-07-29T08:19:33;3.57;;;2.60;;
1428;SDS011;708;51.442;7.016;2022-07-29T08:22:01;4.07;;;2.97;;
1428;SDS011;708;51.442;7.016;2022-07-29T08:24:28;7.47;;;3.30;;
1428;SDS011;708;51.442;7.016;2022-07-29T08:27:18;7.60;;;4.60;;
1428;SDS011;708;51.442;7.016;2022-07-29T08:29:46;5.50;;;3.40;;
1428;SDS011;708;51.442;7.016;2022-07-29T08:32:13;4.40;;;3.50;;
1428;SDS011;708;51.442;7.016;2022-07-29T08:34:41;7.13;;;3.50;;
1428;SDS011;708;51.442;7.016;2022-07-29T08:37:09;5.87;;;4.07;;
1428;SDS011;708;51.442;7.016;2022-07-29T08:39:36;5.30;;;3.97;;
1428;SDS011;708;51.442;7.016;2022-07-29T08:42:03;12.30;;;4.60;;
1428;SDS011;708;51.442;7.016;2022-07-29T08:44:31;6.00;;;3.67;;
1428;SDS011;708;51.442;7.016;2022-07-29T08:46:58;7.10;;;3.47;;
1428;SDS011;708;51.442;7.016;2022-07-29T08:49:25;10.33;;;4.23;;
1428;SDS011;708;51.442;7.016;2022-07-29T08:51:52;5.07;;;3.87;;
1428;SDS011;708;51.442;7.016;2022-07-29T08:54:19;6.73;;;3.90;;
1428;SDS011;708;51.442;7.016;2022-07-29T08:56:49;8.07;;;3.53;;
1428;SDS011;708;51.442;7.016;2022-07-29T08:59:17;4.13;;;3.43;;
1428;SDS011;708;51.442;7.016;2022-07-29T09:01:48;8.47;;;4.47;;
1428;SDS011;708;51.442;7.016;2022-07-29T09:04:16;5.40;;;3.50;;
1428;SDS011;708;51.442;7.016;2022-07-29T09:06:46;6.73;;;4.00;;
1428;SDS011;708;51.442;7.016;2022-07-29T09:09:15;4.30;;;2.87;;
1428;SDS011;708;51.442;7.016;2022-07-29T09:11:42;7.13;;;4.33;;
1428;SDS011;708;51.442;7.016;2022-07-29T09:14:10;4.80;;;3.70;;
1428;SDS011;708;51.442;7.016;2022-07-29T09:16:45;9.30;;;5.50;;
1428;SDS011;708;51.442;7.016;2022-07-29T09:19:21;4.73;;;3.20;;
1428;SDS011;708;51.442;7.016;2022-07-29T09:21:49;6.60;;;4.40;;
1428;SDS011;708;51.442;7.016;2022-07-29T09:24:37;9.30;;;4.27;;
1428;SDS011;708;51.442;7.016;2022-07-29T09:27:08;6.23;;;4.20;;
1428;SDS011;708;51.442;7.016;2022-07-29T09:29:37;6.40;;;4.37;;
1428;SDS011;708;51.442;7.016;2022-07-29T09:32:08;9.37;;;4.60;;
1428;SDS011;708;51.442;7.016;2022-07-29T09:34:35;13.05;;;4.68;;
1428;SDS011;708;51.442;7.016;2022-07-29T09:37:03;7.07;;;4.35;;
1428;SDS011;708;51.442;7.016;2022-07-29T09:39:31;10.93;;;6.18;;
1428;SDS011;708;51.442;7.016;2022-07-29T09:41:59;6.18;;;4.70;;
1428;SDS011;708;51.442;7.016;2022-07-29T09:44:28;7.43;;;5.45;;
1428;SDS011;708;51.442;7.016;2022-07-29T09:47:09;5.70;;;4.80;;
1428;SDS011;708;51.442;7.016;2022-07-29T09:49:36;7.17;;;4.73;;
1428;SDS011;708;51.442;7.016;2022-07-29T09:52:16;7.80;;;5.70;;
1428;SDS011;708;51.442;7.016;2022-07-29T09:54:43;9.15;;;4.95;;
1428;SDS011;708;51.442;7.016;2022-07-29T09:57:21;9.45;;;4.90;;
1428;SDS011;708;51.442;7.016;2022-07-29T09:59:55;5.55;;;4.50;;
1428;SDS011;708;51.442;7.016;2022-07-29T10:02:28;6.70;;;4.70;;
1428;SDS011;708;51.442;7.016;2022-07-29T10:04:56;10.68;;;5.88;;
1428;SDS011;708;51.442;7.016;2022-07-29T10:07:23;11.50;;;7.03;;
1428;SDS011;708;51.442;7.016;2022-07-29T10:09:52;7.53;;;6.60;;
1428;SDS011;708;51.442;7.016;2022-07-29T10:12:21;12.88;;;7.22;;
1428;SDS011;708;51.442;7.016;2022-07-29T10:14:50;9.77;;;7.05;;
1428;SDS011;708;51.442;7.016;2022-07-29T10:17:18;10.65;;;6.00;;
1428;SDS011;708;51.442;7.016;2022-07-29T10:19:46;11.35;;;6.93;;
1428;SDS011;708;51.442;7.016;2022-07-29T10:22:14;9.23;;;7.32;;
1428;SDS011;708;51.442;7.016;2022-07-29T10:24:41;6.85;;;6.00;;
1428;SDS011;708;51.442;7.016;2022-07-29T10:27:08;11.23;;;6.38;;
1428;SDS011;708;51.442;7.016;2022-07-29T10:29:35;7.00;;;5.97;;
1428;SDS011;708;51.442;7.016;2022-07-29T10:32:08;11.17;;;6.80;;
1428;SDS011;708;51.442;7.016;2022-07-29T10:35:03;8.50;;;5.90;;
1428;SDS011;708;51.442;7.016;2022-07-29T10:37:42;9.20;;;7.13;;
1428;SDS011;708;51.442;7.016;2022-07-29T10:40:26;13.27;;;7.27;;
1428;SDS011;708;51.442;7.016;2022-07-29T10:43:19;8.87;;;6.40;;
1428;SDS011;708;51.442;7.016;2022-07-29T10:45:55;9.37;;;7.30;;
1428;SDS011;708;51.442;7.016;2022-07-29T10:48:23;13.97;;;7.60;;
1428;SDS011;708;51.442;7.016;2022-07-29T10:50:56;10.60;;;7.10;;
1428;SDS011;708;51.442;7.016;2022-07-29T10:53:25;9.90;;;7.47;;
1428;SDS011;708;51.442;7.016;2022-07-29T10:56:25;11.77;;;7.50;;
1428;SDS011;708;51.442;7.016;2022-07-29T11:01:53;7.80;;;6.40;;
1428;SDS011;708;51.442;7.016;2022-07-29T11:07:25;6.30;;;5.70;;
1428;SDS011;708;51.442;7.016;2022-07-29T11:12:46;8.40;;;6.07;;
1428;SDS011;708;51.442;7.016;2022-07-29T11:15:13;8.57;;;6.40;;
1428;SDS011;708;51.442;7.016;2022-07-29T11:20:30;7.13;;;5.47;;
1428;SDS011;708;51.442;7.016;2022-07-29T11:23:03;5.73;;;5.23;;
1428;SDS011;708;51.442;7.016;2022-07-29T11:25:44;6.60;;;5.20;;
1428;SDS011;708;51.442;7.016;2022-07-29T11:28:13;9.30;;;5.07;;
1428;SDS011;708;51.442;7.016;2022-07-29T11:30:48;17.10;;;5.40;;
1428;SDS011;708;51.442;7.016;2022-07-29T11:33:28;6.83;;;4.63;;
1428;SDS011;708;51.442;7.016;2022-07-29T11:36:09;6.37;;;4.83;;
1428;SDS011;708;51.442;7.016;2022-07-29T11:38:38;7.27;;;4.90;;
1428;SDS011;708;51.442;7.016;2022-07-29T11:41:24;5.60;;;4.10;;
1428;SDS011;708;51.442;7.016;2022-07-29T11:43:52;5.77;;;3.77;;
1428;SDS011;708;51.442;7.016;2022-07-29T11:49:13;6.57;;;4.10;;
1428;SDS011;708;51.442;7.016;2022-07-29T11:51:49;9.73;;;5.43;;
1428;SDS011;708;51.442;7.016;2022-07-29T11:54:21;5.13;;;3.43;;
1428;SDS011;708;51.442;7.016;2022-07-29T11:56:51;7.93;;;4.10;;
1428;SDS011;708;51.442;7.016;2022-07-29T11:59:19;6.53;;;4.20;;
1428;SDS011;708;51.442;7.016;2022-07-29T12:01:52;7.87;;;4.30;;
1428;SDS011;708;51.442;7.016;2022-07-29T12:04:19;4.90;;;3.50;;
1428;SDS011;708;51.442;7.016;2022-07-29T12:06:48;6.87;;;3.03;;
1428;SDS011;708;51.442;7.016;2022-07-29T12:09:16;7.30;;;4.80;;
1428;SDS011;708;51.442;7.016;2022-07-29T12:11:45;6.40;;;4.67;;
1428;SDS011;708;51.442;7.016;2022-07-29T12:16:59;6.17;;;3.50;;
1428;SDS011;708;51.442;7.016;2022-07-29T12:19:26;7.07;;;4.23;;
1428;SDS011;708;51.442;7.016;2022-07-29T12:21:53;7.47;;;4.50;;
1428;SDS011;708;51.442;7.016;2022-07-29T12:24:23;7.23;;;4.90;;
1428;SDS011;708;51.442;7.016;2022-07-29T12:26:52;6.67;;;4.50;;
1428;SDS011;708;51.442;7.016;2022-07-29T12:29:20;6.67;;;4.37;;
1428;SDS011;708;51.442;7.016;2022-07-29T12:31:50;7.37;;;3.57;;
1428;SDS011;708;51.442;7.016;2022-07-29T12:34:19;5.97;;;4.07;;
1428;SDS011;708;51.442;7.016;2022-07-29T12:36:49;5.43;;;4.30;;
1428;SDS011;708;51.442;7.016;2022-07-29T12:39:16;7.90;;;4.13;;
1428;SDS011;708;51.442;7.016;2022-07-29T12:41:44;4.73;;;3.60;;
1428;SDS011;708;51.442;7.016;2022-07-29T12:44:12;6.00;;;3.17;;
1428;SDS011;708;51.442;7.016;2022-07-29T12:46:39;6.17;;;5.57;;
1428;SDS011;708;51.442;7.016;2022-07-29T12:49:06;7.00;;;5.83;;
1428;SDS011;708;51.442;7.016;2022-07-29T12:51:37;6.33;;;5.60;;
1428;SDS011;708;51.442;7.016;2022-07-29T12:54:08;7.27;;;4.40;;
1428;SDS011;708;51.442;7.016;2022-07-29T12:56:36;6.67;;;4.57;;
1428;SDS011;708;51.442;7.016;2022-07-29T12:59:10;7.63;;;4.27;;
1428;SDS011;708;51.442;7.016;2022-07-29T13:01:40;6.53;;;3.87;;
1428;SDS011;708;51.442;7.016;2022-07-29T13:04:07;9.00;;;4.57;;
1428;SDS011;708;51.442;7.016;2022-07-29T13:06:36;7.10;;;4.00;;
1428;SDS011;708;51.442;7.016;2022-07-29T13:09:07;6.57;;;3.40;;
1428;SDS011;708;51.442;7.016;2022-07-29T13:11:36;9.00;;;4.00;;
1428;SDS011;708;51.442;7.016;2022-07-29T13:14:04;8.63;;;4.10;;
1428;SDS011;708;51.442;7.016;2022-07-29T13:16:35;6.90;;;4.10;;
1428;SDS011;708;51.442;7.016;2022-07-29T13:19:03;5.40;;;3.20;;
1428;SDS011;708;51.442;7.016;2022-07-29T13:21:34;9.93;;;4.30;;
1428;SDS011;708;51.442;7.016;2022-07-29T13:24:02;4.33;;;3.70;;
1428;SDS011;708;51.442;7.016;2022-07-29T13:26:29;5.60;;;3.70;;
1428;SDS011;708;51.442;7.016;2022-07-29T13:28:56;4.87;;;3.50;;
1428;SDS011;708;51.442;7.016;2022-07-29T13:31:23;9.13;;;4.20;;
1428;SDS011;708;51.442;7.016;2022-07-29T13:33:51;4.43;;;3.97;;
1428;SDS011;708;51.442;7.016;2022-07-29T13:36:18;5.70;;;4.20;;
1428;SDS011;708;51.442;7.016;2022-07-29T13:38:45;7.20;;;5.30;;
1428;SDS011;708;51.442;7.016;2022-07-29T13:41:12;4.60;;;4.20;;
1428;SDS011;708;51.442;7.016;2022-07-29T13:43:38;5.77;;;4.60;;
1428;SDS011;708;51.442;7.016;2022-07-29T13:46:05;8.27;;;4.53;;
1428;SDS011;708;51.442;7.016;2022-07-29T13:48:32;4.57;;;3.03;;
1428;SDS011;708;51.442;7.016;2022-07-29T13:51:00;7.53;;;4.83;;
1428;SDS011;708;51.442;7.016;2022-07-29T13:53:27;7.00;;;4.00;;
1428;SDS011;708;51.442;7.016;2022-07-29T13:55:54;6.13;;;4.03;;
1428;SDS011;708;51.442;7.016;2022-07-29T13:58:20;7.27;;;4.00;;
1428;SDS011;708;51.442;7.016;2022-07-29T14:00:47;4.10;;;3.57;;
1428;SDS011;708;51.442;7.016;2022-07-29T14:03:14;6.87;;;4.40;;
1428;SDS011;708;51.442;7.016;2022-07-29T14:05:41;7.30;;;4.60;;
1428;SDS011;708;51.442;7.016;2022-07-29T14:08:09;6.30;;;5.00;;
1428;SDS011;708;51.442;7.016;2022-07-29T14:10:36;8.47;;;3.90;;
1428;SDS011;708;51.442;7.016;2022-07-29T14:13:02;7.73;;;5.73;;
1428;SDS011;708;51.442;7.016;2022-07-29T14:15:29;5.30;;;2.97;;
1428;SDS011;708;51.442;7.016;2022-07-29T14:17:56;8.97;;;6.47;;
1428;SDS011;708;51.442;7.016;2022-07-29T14:20:23;4.97;;;4.50;;
1428;SDS011;708;51.442;7.016;2022-07-29T14:22:50;6.60;;;4.80;;
1428;SDS011;708;51.442;7.016;2022-07-29T14:25:21;7.67;;;5.23;;
1428;SDS011;708;51.442;7.016;2022-07-29T14:27:48;6.97;;;4.70;;
1428;SDS011;708;51.442;7.016;2022-07-29T14:30:15;5.10;;;3.93;;
1428;SDS011;708;51.442;7.016;2022-07-29T14:32:42;4.00;;;3.60;;
1428;SDS011;708;51.442;7.016;2022-07-29T14:35:08;7.80;;;4.90;;
1428;SDS011;708;51.442;7.016;2022-07-29T14:37:35;7.10;;;5.03;;
1428;SDS011;708;51.442;7.016;2022-07-29T14:40:02;9.13;;;5.00;;
1428;SDS011;708;51.442;7.016;2022-07-29T14:42:31;6.13;;;4.10;;
1428;SDS011;708;51.442;7.016;2022-07-29T14:44:58;3.43;;;2.80;;
1428;SDS011;708;51.442;7.016;2022-07-29T14:47:28;6.00;;;4.00;;
1428;SDS011;708;51.442;7.016;2022-07-29T14:49:56;4.33;;;3.17;;
1428;SDS011;708;51.442;7.016;2022-07-29T14:52:25;8.53;;;5.13;;
1428;SDS011;708;51.442;7.016;2022-07-29T14:54:52;8.63;;;5.60;;
1428;SDS011;708;51.442;7.016;2022-07-29T14:57:19;5.97;;;4.70;;
1428;SDS011;708;51.442;7.016;2022-07-29T14:59:47;5.97;;;5.27;;
1428;SDS011;708;51.442;7.016;2022-07-29T15:02:14;4.00;;;3.10;;
1428;SDS011;708;51.442;7.016;2022-07-29T15:04:40;5.83;;;4.13;;
1428;SDS011;708;51.442;7.016;2022-07-29T15:07:07;8.27;;;5.30;;
1428;SDS011;708;51.442;7.016;2022-07-29T15:09:34;9.70;;;6.07;;
1428;SDS011;708;51.442;7.016;2022-07-29T15:12:01;7.90;;;4.90;;
1428;SDS011;708;51.442;7.016;2022-07-29T15:14:29;7.23;;;4.70;;
1428;SDS011;708;51.442;7.016;2022-07-29T15:16:58;11.73;;;6.00;;
1428;SDS011;708;51.442;7.016;2022-07-29T15:19:24;9.27;;;5.20;;
1428;SDS011;708;51.442;7.016;2022-07-29T15:21:51;4.23;;;3.60;;
1428;SDS011;708;51.442;7.016;2022-07-29T15:24:18;8.53;;;4.80;;
1428;SDS011;708;51.442;7.016;2022-07-29T15:26:45;5.33;;;3.50;;
1428;SDS011;708;51.442;7.016;2022-07-29T15:29:13;7.13;;;5.40;;
1428;SDS011;708;51.442;7.016;2022-07-29T15:31:40;5.63;;;4.40;;
1428;SDS011;708;51.442;7.016;2022-07-29T15:34:09;5.73;;;3.10;;
1428;SDS011;708;51.442;7.016;2022-07-29T15:36:35;5.90;;;3.67;;
1428;SDS011;708;51.442;7.016;2022-07-29T15:39:02;6.90;;;4.83;;
1428;SDS011;708;51.442;7.016;2022-07-29T15:41:29;6.13;;;4.50;;
1428;SDS011;708;51.442;7.016;2022-07-29T15:43:56;5.33;;;4.00;;
1428;SDS011;708;51.442;7.016;2022-07-29T15:46:22;4.93;;;4.10;;
1428;SDS011;708;51.442;7.016;2022-07-29T15:49:07;9.10;;;5.53;;
1428;SDS011;708;51.442;7.016;2022-07-29T15:51:35;8.40;;;5.93;;
1428;SDS011;708;51.442;7.016;2022-07-29T15:54:02;6.13;;;5.60;;
1428;SDS011;708;51.442;7.016;2022-07-29T15:56:29;9.93;;;5.33;;
1428;SDS011;708;51.442;7.016;2022-07-29T15:58:56;10.80;;;5.73;;